Acapulco Jet — IWUM — position and weather

sailwx.info

Track history (hours):
 
Tides and Currents Weather Stations Pressure Air Temp Water Temp Dewpoint Dewpoint Depression Visibility Wind Speed Wind Dir Waves Ship Positions

Acapulco Jet

Last reported at 2017-Sep-25 06:38 UTC. Time now 2017-Sep-25 08:10 UTC.
Position N 40°48' E 014°14'.

Length 35 m; draft 1.2 m.

Type: High speed craft. MMSI: 247050100.

Date/timePositionNaut miles runAvg speedWind from/ knotsBaromVisibWave heightAir tempDewpointWater temp
2017-Sep-25 06:38N 40°48' E 014°14'2 0.1
2017-Sep-24 12:30N 40°47' E 014°13'  
2017-Sep-21 15:25N 40°47' E 014°12'0 0.3
2017-Sep-21 13:51N 40°47' E 014°12'0 0.2
2017-Sep-21 12:29N 40°47' E 014°12'1 0.3
2017-Sep-21 10:23N 40°48' E 014°13'1 0.6
2017-Sep-21 08:00N 40°47' E 014°11'2 1.5
2017-Sep-21 06:36N 40°48' E 014°14'2 0.1
2017-Sep-20 12:31N 40°50' E 014°14'129.4
2017-Sep-20 12:28N 40°49' E 014°13'3 2.9
2017-Sep-20 11:21N 40°47' E 014°09'2 2.3
2017-Sep-20 10:24N 40°47' E 014°12'2 1.0
2017-Sep-20 08:04N 40°47' E 014°09'223.0
2017-Sep-20 07:59N 40°47' E 014°12'0 0.3
2017-Sep-20 06:49N 40°47' E 014°12'0 0.0
2017-Sep-19 15:31N 40°48' E 014°13'027.5
2017-Sep-19 15:30N 40°47' E 014°12'0 0.1
2017-Sep-19 11:20N 40°47' E 014°12'0 0.5
2017-Sep-19 10:28N 40°47' E 014°13'1 0.3
2017-Sep-19 08:01N 40°47' E 014°12'1 0.1
2017-Sep-18 15:23N 40°47' E 014°13'1 0.7
2017-Sep-18 13:50N 40°47' E 014°12'4 3.8
2017-Sep-18 12:40N 40°49' E 014°17'427.8
2017-Sep-18 12:30N 40°47' E 014°12'1224.6
2017-Sep-18 12:01N 40°45' E 013°56'612.6
2017-Sep-18 11:31N 40°45' E 014°05'1011.5
2017-Sep-18 10:37N 40°50' E 014°16'214.6
2017-Sep-18 10:30N 40°48' E 014°16'1224.3
2017-Sep-18 10:01N 40°44' E 014°01'9 4.4
2017-Sep-18 08:00N 40°47' E 014°12'1 0.5
2017-Sep-18 06:34N 40°47' E 014°13'1 0.7
2017-Sep-18 05:23N 40°47' E 014°12'1 0.1
2017-Sep-17 16:44N 40°47' E 014°13'1 0.3
2017-Sep-17 13:48N 40°47' E 014°12'0 0.1
2017-Sep-17 12:32N 40°47' E 014°12'0 0.1
2017-Sep-17 10:32N 40°47' E 014°12'1 0.0
2017-Sep-16 15:22N 40°48' E 014°13'1 0.5
2017-Sep-16 13:50N 40°47' E 014°12'1 0.7
2017-Sep-16 12:36N 40°47' E 014°13'1 0.4
2017-Sep-16 10:32N 40°47' E 014°12'1 0.4
2017-Sep-16 08:17N 40°48' E 014°13'12 6.1
2017-Sep-16 06:18N 40°45' E 013°57'1128.0
2017-Sep-16 05:54N 40°47' E 014°12'0 0.0
2017-Sep-15 15:23N 40°47' E 014°13'1 0.4
2017-Sep-15 13:54N 40°47' E 014°12'0 0.0
2017-Sep-15 12:32N 40°47' E 014°12'428.7
2017-Sep-15 12:23N 40°46' E 014°06'820.7
2017-Sep-15 12:00N 40°45' E 013°56'  
Track history (hours):
 
Tides and Currents Weather Stations Pressure Air Temp Water Temp Dewpoint Dewpoint Depression Visibility Wind Speed Wind Dir Waves Ship Positions

Acapulco Jet

Last reported at 2017-Sep-25 06:38 UTC. Time now 2017-Sep-25 08:10 UTC.
Position N 40°48' E 014°14'.

Length 35 m; draft 1.2 m.

Type: High speed craft. MMSI: 247050100.

Date/timePositionNaut miles runAvg speedWind from/ knotsBaromVisibWave heightAir tempDewpointWater temp
2017-Sep-25 06:38N 40°48' E 014°14'2 0.1
2017-Sep-24 12:30N 40°47' E 014°13'  
2017-Sep-21 15:25N 40°47' E 014°12'0 0.3
2017-Sep-21 13:51N 40°47' E 014°12'0 0.2
2017-Sep-21 12:29N 40°47' E 014°12'1 0.3
2017-Sep-21 10:23N 40°48' E 014°13'1 0.6
2017-Sep-21 08:00N 40°47' E 014°11'2 1.5
2017-Sep-21 06:36N 40°48' E 014°14'2 0.1
2017-Sep-20 12:31N 40°50' E 014°14'129.4
2017-Sep-20 12:28N 40°49' E 014°13'3 2.9
2017-Sep-20 11:21N 40°47' E 014°09'2 2.3
2017-Sep-20 10:24N 40°47' E 014°12'2 1.0
2017-Sep-20 08:04N 40°47' E 014°09'223.0
2017-Sep-20 07:59N 40°47' E 014°12'0 0.3
2017-Sep-20 06:49N 40°47' E 014°12'0 0.0
2017-Sep-19 15:31N 40°48' E 014°13'027.5
2017-Sep-19 15:30N 40°47' E 014°12'0 0.1
2017-Sep-19 11:20N 40°47' E 014°12'0 0.5
2017-Sep-19 10:28N 40°47' E 014°13'1 0.3
2017-Sep-19 08:01N 40°47' E 014°12'1 0.1
2017-Sep-18 15:23N 40°47' E 014°13'1 0.7
2017-Sep-18 13:50N 40°47' E 014°12'4 3.8
2017-Sep-18 12:40N 40°49' E 014°17'427.8
2017-Sep-18 12:30N 40°47' E 014°12'1224.6
2017-Sep-18 12:01N 40°45' E 013°56'612.6
2017-Sep-18 11:31N 40°45' E 014°05'1011.5
2017-Sep-18 10:37N 40°50' E 014°16'214.6
2017-Sep-18 10:30N 40°48' E 014°16'1224.3
2017-Sep-18 10:01N 40°44' E 014°01'9 4.4
2017-Sep-18 08:00N 40°47' E 014°12'1 0.5
2017-Sep-18 06:34N 40°47' E 014°13'1 0.7
2017-Sep-18 05:23N 40°47' E 014°12'1 0.1
2017-Sep-17 16:44N 40°47' E 014°13'1 0.3
2017-Sep-17 13:48N 40°47' E 014°12'0 0.1
2017-Sep-17 12:32N 40°47' E 014°12'0 0.1
2017-Sep-17 10:32N 40°47' E 014°12'1 0.0
2017-Sep-16 15:22N 40°48' E 014°13'1 0.5
2017-Sep-16 13:50N 40°47' E 014°12'1 0.7
2017-Sep-16 12:36N 40°47' E 014°13'1 0.4
2017-Sep-16 10:32N 40°47' E 014°12'1 0.4
2017-Sep-16 08:17N 40°48' E 014°13'12 6.1
2017-Sep-16 06:18N 40°45' E 013°57'1128.0
2017-Sep-16 05:54N 40°47' E 014°12'0 0.0
2017-Sep-15 15:23N 40°47' E 014°13'1 0.4
2017-Sep-15 13:54N 40°47' E 014°12'0 0.0
2017-Sep-15 12:32N 40°47' E 014°12'428.7
2017-Sep-15 12:23N 40°46' E 014°06'820.7
2017-Sep-15 12:00N 40°45' E 013°56'  

Dump ship's entire track history